• pl
  • eng

Awiacja
WIADOMOŚCI
ostatnia aktualizacja: 04.09.2019 09:33
Uprzejmie informujemy, że od dnia 2.09.2019 jest dostępna w formie testowej prognoza GAFOR. Prosimy o przesyłanie na adres gafor@imgw.pl uwag i sugestii, które przyczynią się do rozwoju produktu.

W dniach 1-5 października br. IMGW-PIB we współpracy z Lotniskiem Leszno, organizuje XVIII edycję Szkoły Meteorologii Lotniczej. Temat tegorocznej edycji Szkoły to "Meteorologia, a bezpieczne planowanie lotu". Szczegółowe informacje znajdują się w poniższym linku. Serdecznie zapraszamy do udziału w Szkole Meteorologii Lotniczej.

TAF dla lotnisk wojskowych 01:30 22.09.2019

TAF EPCE 212300Z 2200/2209 24005KT 7000 NSC TEMPO 2200/2208 VRB01KT
0500 FG BKN003=

TAF EPDA 212300Z 2200/2209 22005KT 6000 NSC TEMPO 2200/2206 2000 BR
PROB40 2200/2206 0500 FG BKN003=

TAF EPKS 212300Z 2200/2209 15005KT CAVOK
TEMPO 2200/2206 5000 BR
PROB30 TEMPO 2200/2205 3000 MIFG BR=

TAF EPLK 212300Z 2200/2209 VRB02KT CAVOK
PROB30 2200/2205 2000 BR
BECMG 2205/2207 16005KT=

TAF EPMI 212300Z 2200/2209 VRB02KT 6000 NSC
TEMPO 2200/2205 3000 MIFG BR
PROB30 2201/2205 0500 FG BKN002
BECMG 2205/2207 15004KT CAVOK=

TAF EPMM 212300Z 2200/2209 VRB02KT 3000 BR SCT020 NSC TEMPO 2200/2203
0800 FG BKN004 PROB40 2200/2206 0500 FG BKN002=

TAF EPOK 212300Z 2200/2209 26005KT CAVOK PROB40 2200/2207 5000 BR
BKN005=

TAF EPPW 212300Z 2200/2209 VRB03KT 8000 NSC
PROB40 2200/2206 4000 MIFG BR
PROB30 2203/2206 1500 BR SCT005=
Awiacja.imgw.pl jest pogodowym serwisem informacyjnym
Instytutu Meteorologii i Gospodarki Wodnej Państwowego Instytutu Badawczego.
Copyright IMGW PIB 2009-2011© Wszelkie prawa zastrzeżone.